createdAt,value
2023-02-04T00:02:46.059Z,0.14
2023-02-04T00:06:13.194Z,0.12
2023-02-04T00:09:40.399Z,0.12
2023-02-04T00:13:08.432Z,0.11
2023-02-04T00:16:35.498Z,0.11
2023-02-04T00:20:02.287Z,0.12
2023-02-04T00:23:28.920Z,0.09
2023-02-04T00:26:55.359Z,0.06
2023-02-04T00:30:22.870Z,0.04
2023-02-04T00:33:49.222Z,-0.01
2023-02-04T00:37:16.344Z,-0.05
2023-02-04T00:40:43.529Z,-0.11
2023-02-04T00:44:11.008Z,-0.13
2023-02-04T00:47:38.778Z,-0.15
2023-02-04T00:51:07.623Z,-0.17
2023-02-04T00:54:35.382Z,-0.15
2023-02-04T00:58:02.547Z,-0.14
2023-02-04T01:01:30.165Z,-0.16
2023-02-04T01:04:58.475Z,-0.18
2023-02-04T01:08:25.328Z,-0.21
2023-02-04T01:11:52.668Z,-0.26
2023-02-04T01:15:20.362Z,-0.33
2023-02-04T01:18:47.143Z,-0.36
2023-02-04T01:22:14.204Z,-0.39
2023-02-04T01:25:41.198Z,-0.43
2023-02-04T01:29:11.320Z,-0.45
2023-02-04T01:32:41.799Z,-0.45
2023-02-04T01:36:13.785Z,-0.46
2023-02-04T01:39:42.026Z,-0.47
2023-02-04T01:43:21.459Z,-0.49
2023-02-04T01:46:55.042Z,-0.51
2023-02-04T01:50:23.208Z,-0.57
2023-02-04T01:53:50.844Z,-0.62
2023-02-04T01:57:22.495Z,-0.66
2023-02-04T02:00:50.537Z,-0.69
2023-02-04T02:04:22.961Z,-0.71
2023-02-04T02:07:52.993Z,-0.72
2023-02-04T02:11:21.139Z,-0.73
2023-02-04T02:14:49.193Z,-0.73
2023-02-04T02:18:18.770Z,-0.73
2023-02-04T02:21:51.737Z,-0.73
2023-02-04T02:25:19.942Z,-0.77
2023-02-04T02:28:50.804Z,-0.79
2023-02-04T02:32:19.185Z,-0.82
2023-02-04T02:35:48.736Z,-0.87
2023-02-04T02:39:17.371Z,-0.92
2023-02-04T02:42:46.002Z,-0.96
2023-02-04T02:46:13.835Z,-0.98
2023-02-04T02:49:41.253Z,-0.95
2023-02-04T02:53:12.221Z,-0.89
2023-02-04T02:56:45.245Z,-0.82
2023-02-04T03:00:21.103Z,-0.76
2023-02-04T03:03:53.585Z,-0.71
2023-02-04T03:07:26.861Z,-0.72
2023-02-04T03:10:53.777Z,-0.73
2023-02-04T03:14:22.817Z,-0.77
2023-02-04T03:17:52.692Z,-0.81
2023-02-04T03:21:19.561Z,-0.86
2023-02-04T03:24:46.398Z,-0.90
2023-02-04T03:28:16.559Z,-0.95
2023-02-04T03:31:43.329Z,-1.00
2023-02-04T03:35:10.684Z,-1.04
2023-02-04T03:38:38.070Z,-1.06
2023-02-04T03:42:05.408Z,-1.08
2023-02-04T03:45:44.653Z,-1.10
2023-02-04T03:49:12.060Z,-1.10
2023-02-04T03:52:39.073Z,-1.10
2023-02-04T03:56:06.852Z,-1.14
2023-02-04T03:59:33.706Z,-1.10
2023-02-04T04:03:01.943Z,-1.04
2023-02-04T04:06:28.679Z,-1.02
2023-02-04T04:09:55.504Z,-1.00
2023-02-04T04:13:22.508Z,-0.96
2023-02-04T04:16:49.348Z,-0.93
2023-02-04T04:20:19.397Z,-0.88
2023-02-04T04:23:46.884Z,-0.87
2023-02-04T04:27:13.896Z,-0.84
2023-02-04T04:30:42.135Z,-0.82
2023-02-04T04:34:09.103Z,-0.81
2023-02-04T04:37:36.109Z,-0.80
2023-02-04T04:41:02.590Z,-0.79
2023-02-04T04:44:30.417Z,-0.81
2023-02-04T04:47:58.283Z,-0.84
2023-02-04T04:51:25.176Z,-0.82
2023-02-04T04:54:53.284Z,-0.78
2023-02-04T04:58:20.699Z,-0.74
2023-02-04T05:01:47.084Z,-0.67
2023-02-04T05:05:15.916Z,-0.60
2023-02-04T05:08:43.041Z,-0.55
2023-02-04T05:12:10.959Z,-0.54
2023-02-04T05:15:38.310Z,-0.51
2023-02-04T05:19:07.556Z,-0.51
2023-02-04T05:22:34.895Z,-0.51
2023-02-04T05:26:02.890Z,-0.56
2023-02-04T05:29:31.383Z,-0.58
2023-02-04T05:33:03.324Z,-0.59
2023-02-04T05:36:31.091Z,-0.60
2023-02-04T05:40:00.924Z,-0.63
2023-02-04T05:43:29.972Z,-0.64
2023-02-04T05:46:57.133Z,-0.64
2023-02-04T05:50:24.633Z,-0.65
2023-02-04T05:53:55.485Z,-0.66
2023-02-04T05:57:24.531Z,-0.63
2023-02-04T06:00:52.373Z,-0.61
2023-02-04T06:04:19.306Z,-0.58
2023-02-04T06:07:48.204Z,-0.52
2023-02-04T06:11:15.576Z,-0.47
2023-02-04T06:14:43.448Z,-0.44
2023-02-04T06:18:10.662Z,-0.46
2023-02-04T06:21:37.556Z,-0.48
2023-02-04T06:25:04.247Z,-0.47
2023-02-04T06:28:35.551Z,-0.45
2023-02-04T06:32:02.733Z,-0.42
2023-02-04T06:35:32.483Z,-0.42
2023-02-04T06:39:00.506Z,-0.46
2023-02-04T06:42:27.061Z,-0.53
2023-02-04T06:45:59.622Z,-0.59
2023-02-04T06:49:26.540Z,-0.63
2023-02-04T06:52:56.127Z,-0.66
2023-02-04T06:56:27.252Z,-0.70
2023-02-04T06:59:57.598Z,-0.70
2023-02-04T07:03:29.622Z,-0.68
2023-02-04T07:07:00.047Z,-0.64
2023-02-04T07:10:27.010Z,-0.59
2023-02-04T07:13:53.895Z,-0.56
2023-02-04T07:17:20.750Z,-0.55
2023-02-04T07:20:47.644Z,-0.53
2023-02-04T07:24:14.818Z,-0.51
2023-02-04T07:27:41.617Z,-0.52
2023-02-04T07:31:09.034Z,-0.57
2023-02-04T07:34:36.338Z,-0.63
2023-02-04T07:38:03.318Z,-0.70
2023-02-04T07:41:30.405Z,-0.78
2023-02-04T07:44:57.288Z,-0.81
2023-02-04T07:48:23.976Z,-0.85
2023-02-04T07:51:50.721Z,-0.88
2023-02-04T07:55:19.169Z,-0.90
2023-02-04T07:58:46.137Z,-0.86
2023-02-04T08:02:13.213Z,-0.80
2023-02-04T08:05:40.752Z,-0.76
2023-02-04T08:09:08.014Z,-0.72
2023-02-04T08:12:34.391Z,-0.70
2023-02-04T08:16:01.193Z,-0.67
2023-02-04T08:19:29.221Z,-0.64
2023-02-04T08:22:56.217Z,-0.59
2023-02-04T08:26:22.923Z,-0.53
2023-02-04T08:29:50.386Z,-0.49
2023-02-04T08:33:17.072Z,-0.44
2023-02-04T08:36:45.016Z,-0.43
2023-02-04T08:40:14.746Z,-0.41
2023-02-04T08:43:41.202Z,-0.41
2023-02-04T08:47:08.323Z,-0.38
2023-02-04T08:50:35.239Z,-0.36
2023-02-04T08:54:02.648Z,-0.30
2023-02-04T08:57:29.475Z,-0.27
2023-02-04T09:00:56.314Z,-0.19
2023-02-04T09:04:25.018Z,-0.11
2023-02-04T09:07:51.882Z,-0.01
2023-02-04T09:11:19.244Z,0.13
2023-02-04T09:14:45.771Z,0.23
2023-02-04T09:18:16.772Z,0.31
2023-02-04T09:21:44.426Z,0.35
2023-02-04T09:25:13.146Z,0.39
2023-02-04T09:28:40.376Z,0.40
2023-02-04T09:32:07.689Z,0.36
2023-02-04T09:35:34.794Z,0.34
2023-02-04T09:39:01.230Z,0.37
2023-02-04T09:42:28.657Z,0.40
2023-02-04T09:45:56.874Z,0.45
2023-02-04T09:49:24.508Z,0.49
2023-02-04T09:52:54.155Z,0.53
2023-02-04T09:56:20.864Z,0.62
2023-02-04T09:59:48.555Z,0.69
2023-02-04T10:03:19.068Z,0.69
2023-02-04T10:06:47.207Z,0.74
2023-02-04T10:10:19.841Z,0.82
2023-02-04T10:13:50.425Z,0.87
2023-02-04T10:17:21.587Z,0.94
2023-02-04T10:20:49.139Z,1.09
2023-02-04T10:24:18.752Z,1.23
2023-02-04T10:27:57.466Z,1.25
2023-02-04T10:31:33.531Z,1.30
2023-02-04T10:35:04.808Z,1.40
2023-02-04T10:38:32.275Z,1.56
2023-02-04T10:42:00.858Z,1.67
2023-02-04T10:45:31.887Z,1.70
2023-02-04T10:48:59.160Z,1.81
2023-02-04T10:52:32.019Z,1.88
2023-02-04T10:56:00.689Z,2.05
2023-02-04T10:59:29.445Z,2.26
2023-02-04T11:03:05.569Z,2.35
2023-02-04T11:06:32.466Z,2.26
2023-02-04T11:09:59.273Z,2.17
2023-02-04T11:13:30.895Z,2.14
2023-02-04T11:17:01.742Z,2.15
2023-02-04T11:20:40.536Z,2.17
2023-02-04T11:24:23.074Z,2.27
2023-02-04T11:27:52.907Z,2.38
2023-02-04T11:31:36.246Z,2.37
2023-02-04T11:35:25.653Z,2.28
2023-02-04T11:38:54.231Z,2.23
2023-02-04T11:42:32.882Z,2.27
2023-02-04T11:46:21.853Z,2.28
2023-02-04T11:49:57.072Z,2.26
2023-02-04T11:53:30.588Z,2.19
2023-02-04T11:57:03.656Z,2.13
2023-02-04T12:00:34.713Z,2.25
2023-02-04T12:04:06.184Z,2.61
2023-02-04T12:07:36.689Z,2.88
2023-02-04T12:11:08.481Z,2.97
2023-02-04T12:14:43.286Z,3.18
2023-02-04T12:18:15.518Z,3.18
2023-02-04T12:21:46.800Z,3.06
2023-02-04T12:25:17.395Z,2.84
2023-02-04T12:28:44.262Z,2.66
2023-02-04T12:32:11.355Z,2.51
2023-02-04T12:35:41.222Z,2.48
2023-02-04T12:39:11.211Z,2.60
2023-02-04T12:42:39.716Z,2.59
2023-02-04T12:46:07.540Z,2.50
2023-02-04T12:49:43.940Z,2.41
2023-02-04T12:53:10.989Z,2.40
2023-02-04T12:56:40.752Z,2.34
2023-02-04T13:00:10.145Z,2.21
2023-02-04T13:03:37.354Z,2.13
2023-02-04T13:07:04.406Z,2.02
2023-02-04T13:10:31.616Z,1.92
2023-02-04T13:14:01.066Z,1.91
2023-02-04T13:17:28.595Z,2.09
2023-02-04T13:20:55.436Z,2.16
2023-02-04T13:24:21.812Z,2.12
2023-02-04T13:27:49.143Z,1.99
2023-02-04T13:31:18.241Z,1.90
2023-02-04T13:34:47.367Z,1.81
2023-02-04T13:38:17.327Z,1.69
2023-02-04T13:41:44.230Z,1.61
2023-02-04T13:45:13.616Z,1.52
2023-02-04T13:48:41.192Z,1.41
2023-02-04T13:52:13.647Z,1.30
2023-02-04T13:55:40.944Z,1.39
2023-02-04T13:59:09.200Z,1.62
2023-02-04T14:02:36.805Z,1.84
2023-02-04T14:06:09.121Z,2.02
2023-02-04T14:09:38.529Z,2.08
2023-02-04T14:13:05.527Z,1.96
2023-02-04T14:16:37.691Z,1.80
2023-02-04T14:20:10.986Z,1.65
2023-02-04T14:23:40.370Z,1.62
2023-02-04T14:27:08.032Z,1.54
2023-02-04T14:30:41.280Z,1.43
2023-02-04T14:34:18.671Z,1.26
2023-02-04T14:37:46.211Z,1.11
2023-02-04T14:41:16.912Z,0.99
2023-02-04T14:44:44.561Z,0.86
2023-02-04T14:48:12.235Z,0.77
2023-02-04T14:51:39.054Z,0.70
2023-02-04T14:55:06.713Z,0.71
2023-02-04T14:58:34.337Z,0.72
2023-02-04T15:02:05.167Z,0.72
2023-02-04T15:05:35.662Z,0.78
2023-02-04T15:09:10.072Z,0.85
2023-02-04T15:12:37.442Z,0.89
2023-02-04T15:16:09.407Z,0.85
2023-02-04T15:19:38.918Z,0.75
2023-02-04T15:23:06.235Z,0.67
2023-02-04T15:26:34.750Z,0.58
2023-02-04T15:30:01.744Z,0.54
2023-02-04T15:33:30.165Z,0.50
2023-02-04T15:36:57.797Z,0.46
2023-02-04T15:40:24.991Z,0.41
2023-02-04T15:43:52.006Z,0.40
2023-02-04T15:47:20.083Z,0.38
2023-02-04T15:50:47.959Z,0.36
2023-02-04T15:54:15.408Z,0.31
2023-02-04T15:57:44.261Z,0.24
2023-02-04T16:01:17.924Z,0.19
2023-02-04T16:04:48.161Z,0.16
2023-02-04T16:08:14.942Z,0.16
2023-02-04T16:11:45.050Z,0.14
2023-02-04T16:15:16.058Z,0.15
2023-02-04T16:18:43.765Z,0.13
2023-02-04T16:22:13.675Z,0.12
2023-02-04T16:25:43.122Z,0.07
2023-02-04T16:29:10.848Z,-0.02
2023-02-04T16:32:37.282Z,-0.08
2023-02-04T16:36:07.412Z,-0.14
2023-02-04T16:39:37.147Z,-0.21
2023-02-04T16:43:04.588Z,-0.26
2023-02-04T16:46:33.983Z,-0.31
2023-02-04T16:50:02.654Z,-0.35
2023-02-04T16:53:29.607Z,-0.42
2023-02-04T16:56:57.204Z,-0.50
2023-02-04T17:00:25.977Z,-0.59
2023-02-04T17:03:58.274Z,-0.68
2023-02-04T17:07:27.394Z,-0.74
2023-02-04T17:11:13.398Z,-0.76
2023-02-04T17:14:41.600Z,-0.76
2023-02-04T17:18:08.465Z,-0.75
2023-02-04T17:21:36.854Z,-0.76
2023-02-04T17:25:03.866Z,-0.77
2023-02-04T17:28:30.919Z,-0.73
2023-02-04T17:31:57.739Z,-0.68
2023-02-04T17:35:26.107Z,-0.62
2023-02-04T17:38:52.609Z,-0.55
2023-02-04T17:42:20.995Z,-0.53
2023-02-04T17:45:48.143Z,-0.56
2023-02-04T17:49:16.153Z,-0.58
2023-02-04T17:52:43.135Z,-0.64
2023-02-04T17:56:14.175Z,-0.68
2023-02-04T17:59:41.243Z,-0.76
2023-02-04T18:03:14.502Z,-0.82
2023-02-04T18:06:42.927Z,-0.88
2023-02-04T18:10:23.036Z,-0.93
2023-02-04T18:13:50.803Z,-1.00
2023-02-04T18:17:18.471Z,-1.06
2023-02-04T18:20:45.534Z,-1.07
2023-02-04T18:24:19.608Z,-1.09
2023-02-04T18:27:48.619Z,-1.10
2023-02-04T18:31:39.919Z,-1.13
2023-02-04T18:35:35.834Z,-1.13
2023-02-04T18:39:13.876Z,-1.08
2023-02-04T18:42:42.934Z,-1.06
2023-02-04T18:46:24.056Z,-1.07
2023-02-04T18:49:50.998Z,-1.07
2023-02-04T18:53:24.591Z,-1.02
2023-02-04T18:56:53.726Z,-1.01
2023-02-04T19:00:28.201Z,-0.98
2023-02-04T19:03:59.316Z,-0.99
2023-02-04T19:07:26.695Z,-1.03
2023-02-04T19:10:55.233Z,-1.07
2023-02-04T19:14:31.714Z,-1.11
2023-02-04T19:18:01.020Z,-1.16
2023-02-04T19:21:30.383Z,-1.17
2023-02-04T19:25:02.374Z,-1.18
2023-02-04T19:28:37.720Z,-1.18
2023-02-04T19:32:21.044Z,-1.14
2023-02-04T19:35:49.836Z,-1.09
2023-02-04T19:39:30.861Z,-1.06
2023-02-04T19:43:06.919Z,-1.03
2023-02-04T19:46:38.861Z,-1.02
2023-02-04T19:50:23.191Z,-1.02
2023-02-04T19:53:52.655Z,-1.00
2023-02-04T19:57:26.514Z,-1.00
2023-02-04T20:01:01.857Z,-1.05
2023-02-04T20:04:41.293Z,-1.07
2023-02-04T20:08:45.299Z,-1.10
2023-02-04T20:12:19.116Z,-1.13
2023-02-04T20:15:46.604Z,-1.17
2023-02-04T20:19:22.167Z,-1.17
2023-02-04T20:22:51.104Z,-1.14
2023-02-04T20:26:18.420Z,-1.13
2023-02-04T20:29:45.862Z,-1.08
2023-02-04T20:33:29.889Z,-1.03
2023-02-04T20:37:01.587Z,-0.97
2023-02-04T20:40:35.161Z,-0.91
2023-02-04T20:44:11.816Z,-0.89
2023-02-04T20:47:42.226Z,-0.91
2023-02-04T20:51:23.294Z,-0.92
2023-02-04T20:54:50.945Z,-0.94
2023-02-04T20:58:23.215Z,-0.96
2023-02-04T21:01:51.543Z,-0.99
2023-02-04T21:05:26.265Z,-1.04
2023-02-04T21:08:56.371Z,-1.09
2023-02-04T21:12:25.940Z,-1.10
2023-02-04T21:15:56.345Z,-1.10
2023-02-04T21:19:30.415Z,-1.08
2023-02-04T21:22:58.699Z,-1.05
2023-02-04T21:26:29.231Z,-1.02
2023-02-04T21:30:01.564Z,-0.99
2023-02-04T21:33:29.699Z,-0.96
2023-02-04T21:36:59.258Z,-0.99
2023-02-04T21:40:29.473Z,-1.03
2023-02-04T21:43:58.077Z,-1.09
2023-02-04T21:47:28.908Z,-1.14
2023-02-04T21:50:59.312Z,-1.23
2023-02-04T21:54:26.509Z,-1.29
2023-02-04T21:57:54.195Z,-1.36
2023-02-04T22:01:21.539Z,-1.44
2023-02-04T22:04:49.172Z,-1.53
2023-02-04T22:08:16.578Z,-1.58
2023-02-04T22:11:43.792Z,-1.61
2023-02-04T22:15:12.420Z,-1.63
2023-02-04T22:18:39.722Z,-1.63
2023-02-04T22:22:07.409Z,-1.64
2023-02-04T22:25:34.886Z,-1.62
2023-02-04T22:29:01.682Z,-1.58
2023-02-04T22:32:29.071Z,-1.53
2023-02-04T22:35:55.957Z,-1.50
2023-02-04T22:39:29.441Z,-1.51
2023-02-04T22:42:54.678Z,-1.50
2023-02-04T22:46:23.815Z,-1.54
2023-02-04T22:49:52.296Z,-1.54
2023-02-04T22:53:19.834Z,-1.53
2023-02-04T22:56:47.117Z,-1.57
2023-02-04T23:00:18.073Z,-1.59
2023-02-04T23:03:50.532Z,-1.67
2023-02-04T23:07:17.446Z,-1.78
2023-02-04T23:10:44.349Z,-1.89
2023-02-04T23:14:13.152Z,-1.97
2023-02-04T23:17:41.082Z,-2.07
2023-02-04T23:21:10.742Z,-2.14
2023-02-04T23:24:41.480Z,-2.26
2023-02-04T23:28:08.914Z,-2.38
2023-02-04T23:31:38.630Z,-2.49
2023-02-04T23:35:12.346Z,-2.58
2023-02-04T23:38:41.623Z,-2.69
2023-02-04T23:42:08.409Z,-2.80
2023-02-04T23:45:35.887Z,-2.92
2023-02-04T23:49:02.692Z,-3.03
2023-02-04T23:52:29.729Z,-3.13
2023-02-04T23:55:56.792Z,-3.22
2023-02-04T23:59:24.391Z,-3.29
